Time;durP1;ratioP1;P1;durP2;ratioP2;P2;SDS_P1;SDS_P2;PMS_P1;PMS_P2;Temp;Humidity;BMP_temperature;BMP_pressure;BME280_temperature;BME280_humidity;BME280_pressure;Samples;Min_cycle;Max_cycle;Signal;HPM_P1;HPM_P2
2022/12/10 00:01:48;;;;;;;330.80;157.27;;;-0.70;99.90;;;;;;5071986;28;20225;-67
2022/12/10 00:04:17;;;;;;;342.73;160.23;;;-0.70;99.90;;;;;;5071495;28;20228;-66
2022/12/10 00:06:46;;;;;;;336.77;155.00;;;-0.70;99.90;;;;;;5071589;28;20279;-69
2022/12/10 00:09:18;;;;;;;333.83;155.00;;;-0.70;99.90;;;;;;5071206;28;20203;-68
2022/12/10 00:11:47;;;;;;;310.97;143.43;;;-0.80;99.90;;;;;;5071249;28;20201;-67
2022/12/10 00:14:17;;;;;;;277.13;133.33;;;-0.90;99.90;;;;;;5071214;28;20201;-66
2022/12/10 00:16:45;;;;;;;266.47;127.03;;;-0.80;99.90;;;;;;5071374;28;20227;-70
2022/12/10 00:19:14;;;;;;;269.23;125.93;;;-0.80;99.90;;;;;;5071392;28;20271;-67
2022/12/10 00:21:45;;;;;;;280.83;130.13;;;-0.80;99.90;;;;;;5071216;28;20228;-68
2022/12/10 00:24:13;;;;;;;236.87;108.73;;;-0.90;99.90;;;;;;5072182;28;20193;-69
2022/12/10 00:26:42;;;;;;;177.70;88.63;;;-0.80;99.90;;;;;;5075015;28;20193;-68
2022/12/10 00:29:12;;;;;;;184.50;91.00;;;-0.70;99.90;;;;;;5074984;28;20207;-67
2022/12/10 00:31:43;;;;;;;164.73;81.77;;;-0.60;99.90;;;;;;5075011;28;20193;-67
2022/12/10 00:34:13;;;;;;;169.30;86.10;;;-0.60;99.90;;;;;;5080074;28;20666;-66
2022/12/10 00:36:43;;;;;;;172.30;85.13;;;-0.70;99.90;;;;;;5095292;28;20219;-67
2022/12/10 00:39:14;;;;;;;159.37;78.40;;;-0.70;99.90;;;;;;5076933;28;20253;-67
2022/12/10 00:41:43;;;;;;;159.50;78.03;;;-0.80;99.90;;;;;;5076854;28;20242;-66
2022/12/10 00:44:13;;;;;;;154.67;76.63;;;-0.70;99.90;;;;;;5076745;28;20199;-67
2022/12/10 00:46:43;;;;;;;142.57;74.63;;;-0.80;99.90;;;;;;5076784;28;20283;-67
2022/12/10 00:49:12;;;;;;;151.00;72.90;;;-0.80;99.90;;;;;;5076902;28;20200;-67
2022/12/10 00:51:40;;;;;;;131.27;66.57;;;-0.80;99.90;;;;;;5094894;28;20193;-67
2022/12/10 00:54:12;;;;;;;131.63;65.77;;;-0.80;99.90;;;;;;5094927;28;20224;-67
2022/12/10 00:56:41;;;;;;;148.47;66.03;;;-0.80;99.90;;;;;;5094736;28;20267;-66
2022/12/10 00:59:09;;;;;;;131.33;65.83;;;-0.80;99.90;;;;;;5094877;28;20554;-66
2022/12/10 01:01:39;;;;;;;128.37;61.03;;;-0.80;99.90;;;;;;5094787;28;20228;-66
2022/12/10 01:04:12;;;;;;;131.97;64.27;;;-0.80;99.90;;;;;;5094658;28;20230;-68
2022/12/10 01:06:44;;;;;;;139.30;66.93;;;-0.80;99.90;;;;;;5094796;28;20222;-67
2022/12/10 01:09:15;;;;;;;135.97;64.67;;;-0.80;99.90;;;;;;5076462;28;20204;-68
2022/12/10 01:11:46;;;;;;;158.97;75.17;;;-0.70;99.90;;;;;;5094440;28;20200;-67
2022/12/10 01:14:17;;;;;;;145.40;66.33;;;-0.70;99.90;;;;;;5094374;28;20242;-67
2022/12/10 01:16:49;;;;;;;120.27;58.63;;;-0.70;99.90;;;;;;5094405;28;20729;-68
2022/12/10 01:19:19;;;;;;;108.83;59.33;;;-0.70;99.90;;;;;;5076022;28;20200;-67
2022/12/10 01:21:51;;;;;;;128.13;61.53;;;-0.70;99.90;;;;;;5075859;28;20229;-67
2022/12/10 01:24:19;;;;;;;120.87;60.13;;;-0.70;99.90;;;;;;5074103;28;20200;-66
2022/12/10 01:26:48;;;;;;;100.70;51.83;;;-0.70;99.90;;;;;;5074024;28;20181;-67
2022/12/10 01:29:16;;;;;;;113.77;56.33;;;-0.80;99.90;;;;;;5073984;28;20250;-67
2022/12/10 01:31:47;;;;;;;109.30;54.10;;;-0.80;99.90;;;;;;5074000;28;20200;-67
2022/12/10 01:34:16;;;;;;;110.03;56.87;;;-0.80;99.90;;;;;;5073946;28;20197;-67
2022/12/10 01:36:49;;;;;;;125.80;62.20;;;-0.80;99.90;;;;;;5073791;28;20276;-67
2022/12/10 01:39:19;;;;;;;169.33;77.57;;;-0.80;99.90;;;;;;5055813;28;20205;-68
2022/12/10 01:41:50;;;;;;;153.23;78.20;;;-0.80;99.90;;;;;;5073635;28;20243;-67
2022/12/10 01:44:56;;;;;;;137.50;72.53;;;-0.80;99.90;;;;;;5073370;28;20205;-68
2022/12/10 01:47:25;;;;;;;135.03;66.57;;;-0.90;99.90;;;;;;5065084;28;20208;-67
2022/12/10 01:49:53;;;;;;;145.13;71.30;;;-0.90;99.90;;;;;;5093896;28;20275;-67
2022/12/10 01:52:24;;;;;;;136.03;68.60;;;-0.90;99.90;;;;;;5075587;28;20231;-79
2022/12/10 01:54:52;;;;;;;141.27;68.07;;;-0.80;99.90;;;;;;5093360;28;20214;-74
2022/12/10 01:57:24;;;;;;;124.93;62.37;;;-0.80;99.90;;;;;;5093679;28;20689;-68
2022/12/10 01:59:57;;;;;;;119.60;62.23;;;-0.70;99.90;;;;;;5075505;28;20212;-78
2022/12/10 02:02:42;;;;;;;106.93;55.87;;;-0.60;99.90;;;;;;5093564;28;20709;-67
2022/12/10 02:05:22;;;;;;;134.30;66.23;;;-0.50;99.90;;;;;;5093458;28;20315;-70
2022/12/10 02:08:06;;;;;;;175.10;87.17;;;-0.50;99.90;;;;;;5093396;28;20273;-67
2022/12/10 02:10:45;;;;;;;202.07;95.07;;;-0.40;99.90;;;;;;5093303;28;20198;-67
2022/12/10 02:13:20;;;;;;;222.50;102.37;;;-0.40;99.90;;;;;;5093289;28;20555;-67
2022/12/10 02:15:52;;;;;;;228.87;109.03;;;-0.50;99.90;;;;;;5074982;28;20203;-66
2022/12/10 02:18:25;;;;;;;233.20;107.17;;;-0.50;99.90;;;;;;5074961;28;20689;-67
2022/12/10 02:20:59;;;;;;;240.10;105.47;;;-0.50;99.90;;;;;;5093044;28;20575;-67
2022/12/10 02:23:34;;;;;;;249.30;109.17;;;-0.50;99.90;;;;;;5074932;28;20203;-67
2022/12/10 02:26:10;;;;;;;234.37;107.50;;;-0.40;99.90;;;;;;5093020;28;20242;-79
2022/12/10 02:28:45;;;;;;;228.40;107.73;;;-0.40;99.90;;;;;;5074962;28;20672;-68
2022/12/10 02:31:18;;;;;;;206.63;102.53;;;-0.30;99.90;;;;;;5074803;28;20257;-67
2022/12/10 02:33:51;;;;;;;217.53;103.43;;;-0.30;99.90;;;;;;5074839;28;20283;-67
2022/12/10 02:36:22;;;;;;;218.17;100.30;;;-0.40;99.90;;;;;;5074706;28;20211;-68
2022/12/10 02:38:53;;;;;;;203.27;102.80;;;-0.50;99.90;;;;;;5074642;28;20309;-71
2022/12/10 02:41:28;;;;;;;218.43;105.47;;;-0.60;99.90;;;;;;5074270;28;20234;-67
2022/12/10 02:44:00;;;;;;;215.03;104.57;;;-0.60;99.90;;;;;;5074349;28;20211;-67
2022/12/10 02:46:33;;;;;;;224.23;107.13;;;-0.60;99.90;;;;;;5074039;28;20601;-68
2022/12/10 02:49:07;;;;;;;208.93;99.17;;;-0.50;99.90;;;;;;5074583;28;20241;-69
2022/12/10 02:51:37;;;;;;;218.60;102.07;;;-0.40;99.90;;;;;;5074354;28;20262;-67
2022/12/10 02:54:27;;;;;;;211.37;100.30;;;-0.40;99.90;;;;;;5074364;28;20727;-67
2022/12/10 02:56:59;;;;;;;220.00;101.80;;;-0.40;99.90;;;;;;5074121;28;20658;-68
2022/12/10 02:59:34;;;;;;;209.63;100.03;;;-0.30;99.90;;;;;;5092611;28;20199;-67
2022/12/10 03:02:15;;;;;;;216.67;100.63;;;-0.30;99.90;;;;;;5074140;28;20254;-67
2022/12/10 03:04:49;;;;;;;205.73;103.10;;;-0.30;99.90;;;;;;5092201;28;20721;-69
2022/12/10 03:07:25;;;;;;;208.80;97.93;;;-0.30;99.90;;;;;;5092173;28;20192;-68
2022/12/10 03:10:00;;;;;;;202.97;94.47;;;-0.20;99.90;;;;;;5092278;28;20191;-67
2022/12/10 03:12:33;;;;;;;190.97;88.87;;;-0.20;99.90;;;;;;5091959;28;20203;-67
2022/12/10 03:15:06;;;;;;;192.47;96.57;;;-0.20;99.90;;;;;;5074067;28;20611;-67
2022/12/10 03:17:37;;;;;;;198.17;95.63;;;-0.30;99.90;;;;;;5092108;28;20212;-82
2022/12/10 03:20:09;;;;;;;195.97;94.20;;;-0.30;99.90;;;;;;5092133;28;20195;-82
2022/12/10 03:22:40;;;;;;;150.30;71.57;;;-0.30;99.90;;;;;;5092196;28;20585;-82
2022/12/10 03:25:13;;;;;;;130.63;63.47;;;-0.40;99.90;;;;;;5092172;28;20273;-84
2022/12/10 03:27:43;;;;;;;82.80;42.13;;;-0.40;99.90;;;;;;5092006;28;20622;-84
2022/12/10 03:30:12;;;;;;;77.50;38.97;;;-0.40;99.90;;;;;;5092185;28;20215;-85
2022/12/10 03:32:43;;;;;;;71.20;41.33;;;-0.40;99.90;;;;;;5092284;28;20196;-66
2022/12/10 03:35:14;;;;;;;73.57;39.80;;;-0.40;99.90;;;;;;5092106;28;20239;-68
2022/12/10 03:37:42;;;;;;;62.07;32.43;;;-0.40;99.90;;;;;;5091987;28;20228;-69
2022/12/10 03:40:13;;;;;;;51.33;29.20;;;-0.40;99.90;;;;;;5091974;28;20192;-79
2022/12/10 03:42:41;;;;;;;54.80;27.97;;;-0.40;99.90;;;;;;5091555;28;20224;-72
2022/12/10 03:45:11;;;;;;;53.00;28.07;;;-0.40;99.90;;;;;;5091913;28;20196;-68
2022/12/10 03:47:41;;;;;;;53.23;29.23;;;-0.40;99.90;;;;;;5091725;28;20206;-68
2022/12/10 03:50:11;;;;;;;48.93;27.33;;;-0.40;99.90;;;;;;5092122;28;20660;-67
2022/12/10 03:52:39;;;;;;;54.53;29.57;;;-0.20;99.90;;;;;;5091725;28;20200;-66
2022/12/10 03:55:09;;;;;;;80.73;38.70;;;-0.10;99.90;;;;;;5091942;28;20200;-73
2022/12/10 03:57:38;;;;;;;107.57;54.13;;;-0.10;99.90;;;;;;5091708;28;20196;-67
2022/12/10 04:00:07;;;;;;;129.97;65.67;;;0.00;99.90;;;;;;5094437;28;20554;-71
2022/12/10 04:02:40;;;;;;;153.57;73.10;;;0.00;99.90;;;;;;5095998;28;20223;-70
2022/12/10 04:05:09;;;;;;;144.47;68.67;;;0.10;99.90;;;;;;5095863;28;20216;-67
2022/12/10 04:07:38;;;;;;;136.73;71.03;;;0.10;99.90;;;;;;5095971;28;20574;-68
2022/12/10 04:10:07;;;;;;;128.07;64.13;;;0.00;99.90;;;;;;5095633;28;20254;-72
2022/12/10 04:12:36;;;;;;;96.83;52.03;;;0.00;99.90;;;;;;5086385;28;20552;-70
2022/12/10 04:18:03;;;;;;;92.10;48.90;;;-0.10;99.90;;;;;;4993862;28;20669;-66
2022/12/10 04:28:49;;;;;;;87.03;45.50;;;-0.10;99.90;;;;;;4993731;28;20599;-68
2022/12/10 04:31:18;;;;;;;96.40;49.40;;;0.00;99.90;;;;;;4993609;28;20203;-68
2022/12/10 04:33:48;;;;;;;97.67;50.47;;;0.00;99.90;;;;;;5000611;28;20207;-71
2022/12/10 04:36:16;;;;;;;100.30;50.83;;;-0.10;99.90;;;;;;5032890;28;20671;-67
2022/12/10 04:38:45;;;;;;;97.87;50.40;;;-0.20;99.90;;;;;;5021174;28;20207;-66
2022/12/10 04:41:15;;;;;;;104.23;51.27;;;-0.20;99.90;;;;;;5029656;28;20210;-69
2022/12/10 04:43:43;;;;;;;95.57;50.90;;;-0.20;99.90;;;;;;5032736;28;20707;-67
2022/12/10 04:46:12;;;;;;;98.40;49.50;;;-0.20;99.90;;;;;;5032591;28;20684;-66
2022/12/10 04:48:40;;;;;;;95.70;51.20;;;-0.20;99.90;;;;;;5032711;28;20194;-66
2022/12/10 04:51:10;;;;;;;95.07;49.80;;;-0.10;99.90;;;;;;5032700;28;20298;-66
2022/12/10 04:53:39;;;;;;;95.07;48.93;;;-0.10;99.90;;;;;;5058241;28;20196;-66
2022/12/10 04:56:08;;;;;;;101.43;50.23;;;0.00;99.90;;;;;;5094618;28;20294;-66
2022/12/10 04:58:36;;;;;;;92.20;46.07;;;0.00;99.90;;;;;;5094840;28;20662;-65
2022/12/10 05:01:06;;;;;;;92.43;48.43;;;-0.10;99.90;;;;;;5094864;28;20188;-65
2022/12/10 05:03:36;;;;;;;81.57;45.07;;;0.00;99.90;;;;;;5094337;28;20689;-82
2022/12/10 05:06:06;;;;;;;73.87;41.43;;;0.00;99.90;;;;;;5093898;28;20200;-87
2022/12/10 05:08:38;;;;;;;79.20;42.90;;;0.00;99.90;;;;;;5095433;28;20585;-85
2022/12/10 05:11:08;;;;;;;66.97;39.23;;;0.00;99.90;;;;;;5094332;28;20204;-77
2022/12/10 05:13:36;;;;;;;55.23;32.67;;;-0.10;99.90;;;;;;5091703;28;20544;-82
2022/12/10 05:16:06;;;;;;;63.90;34.97;;;-0.10;99.90;;;;;;5090419;28;20192;-81
2022/12/10 05:18:36;;;;;;;76.63;39.43;;;-0.10;99.90;;;;;;5093547;28;20201;-67
2022/12/10 05:21:07;;;;;;;71.20;37.67;;;-0.20;99.90;;;;;;5090935;28;20213;-70
2022/12/10 05:23:39;;;;;;;56.53;32.47;;;-0.20;99.90;;;;;;5093333;28;20701;-66
2022/12/10 05:26:10;;;;;;;51.10;30.93;;;-0.30;99.90;;;;;;5093447;28;20539;-74
2022/12/10 05:28:40;;;;;;;57.03;31.93;;;-0.40;99.90;;;;;;5093656;28;20254;-69
2022/12/10 05:31:13;;;;;;;54.53;29.07;;;-0.50;99.90;;;;;;5093693;28;20666;-70
2022/12/10 05:33:43;;;;;;;46.40;26.27;;;-0.50;99.90;;;;;;5094402;28;20206;-67
2022/12/10 05:36:13;;;;;;;43.00;26.53;;;-0.50;99.90;;;;;;5075511;28;20201;-68
2022/12/10 05:38:44;;;;;;;41.60;24.93;;;-0.50;99.90;;;;;;5066398;28;20259;-68
2022/12/10 05:41:14;;;;;;;48.20;25.67;;;-0.50;99.90;;;;;;5081550;28;20661;-67
2022/12/10 05:43:44;;;;;;;48.73;29.73;;;-0.50;99.90;;;;;;5093530;28;20220;-68
2022/12/10 05:46:15;;;;;;;47.83;28.67;;;-0.50;99.90;;;;;;5094175;28;20227;-67
2022/12/10 05:48:43;;;;;;;50.50;29.73;;;-0.40;99.90;;;;;;5093975;28;20192;-67
2022/12/10 05:51:14;;;;;;;70.20;39.07;;;-0.30;99.90;;;;;;5094009;28;20204;-66
2022/12/10 05:53:44;;;;;;;80.83;43.47;;;-0.30;99.90;;;;;;5093997;28;20617;-67
2022/12/10 05:56:15;;;;;;;75.37;42.97;;;-0.40;99.90;;;;;;5093782;28;20283;-67
2022/12/10 05:58:44;;;;;;;77.93;41.50;;;-0.40;99.90;;;;;;5093601;28;20188;-67
2022/12/10 06:01:15;;;;;;;80.37;42.63;;;-0.40;99.90;;;;;;5093920;28;20210;-67
2022/12/10 06:03:44;;;;;;;69.13;39.67;;;-0.50;99.90;;;;;;5093265;28;20281;-67
2022/12/10 06:06:14;;;;;;;68.93;37.63;;;-0.50;99.90;;;;;;5093735;28;20662;-67
2022/12/10 06:08:44;;;;;;;68.10;38.47;;;-0.50;99.90;;;;;;5093582;28;20196;-68
2022/12/10 06:11:12;;;;;;;65.77;34.47;;;-0.50;99.90;;;;;;5075379;28;20224;-66
2022/12/10 06:13:41;;;;;;;69.37;35.80;;;-0.60;99.90;;;;;;5093596;28;20290;-68
2022/12/10 06:16:12;;;;;;;61.67;34.03;;;-0.60;99.90;;;;;;5093461;28;20199;-73
2022/12/10 06:18:41;;;;;;;57.33;32.83;;;-0.60;99.90;;;;;;5093325;28;20246;-66
2022/12/10 06:21:11;;;;;;;56.37;33.30;;;-0.60;99.90;;;;;;5092758;28;20196;-69
2022/12/10 06:23:40;;;;;;;65.20;38.40;;;-0.60;99.90;;;;;;5092843;28;20208;-67
2022/12/10 06:26:13;;;;;;;83.47;48.87;;;-0.50;99.90;;;;;;5093164;28;20293;-69
2022/12/10 06:28:42;;;;;;;68.57;43.37;;;-0.50;99.90;;;;;;5093296;28;20250;-67
2022/12/10 06:31:10;;;;;;;72.53;42.07;;;-0.50;99.90;;;;;;5093165;28;20205;-66
2022/12/10 06:33:41;;;;;;;66.40;39.77;;;-0.50;99.90;;;;;;5093107;28;20215;-67
2022/12/10 06:36:12;;;;;;;52.10;33.67;;;-0.40;99.90;;;;;;5093058;28;20196;-67
2022/12/10 06:38:41;;;;;;;48.37;29.07;;;-0.40;99.90;;;;;;5093087;28;20207;-68
2022/12/10 06:41:13;;;;;;;53.87;29.83;;;-0.40;99.90;;;;;;5092807;28;20196;-68
2022/12/10 06:43:41;;;;;;;50.10;28.33;;;-0.40;99.90;;;;;;5092656;28;20220;-67
2022/12/10 06:46:13;;;;;;;47.00;27.90;;;-0.30;99.90;;;;;;5092888;28;20200;-68
2022/12/10 06:48:41;;;;;;;42.27;24.30;;;-0.30;99.90;;;;;;5092642;28;20189;-67
2022/12/10 06:51:11;;;;;;;47.50;26.67;;;-0.30;99.90;;;;;;5092754;28;20204;-68
2022/12/10 06:53:40;;;;;;;42.27;22.40;;;-0.40;99.90;;;;;;5092623;28;20193;-69
2022/12/10 06:56:14;;;;;;;39.07;22.63;;;-0.40;99.90;;;;;;5092775;28;20207;-67
2022/12/10 06:58:43;;;;;;;35.47;20.93;;;-0.40;99.90;;;;;;5092495;28;20196;-69
2022/12/10 07:01:13;;;;;;;30.13;19.43;;;-0.40;99.90;;;;;;5092697;28;20192;-70
2022/12/10 07:03:42;;;;;;;33.50;20.87;;;-0.40;99.90;;;;;;5092345;28;20286;-67
2022/12/10 07:06:12;;;;;;;31.43;18.93;;;-0.40;99.90;;;;;;5092563;28;20200;-68
2022/12/10 07:08:41;;;;;;;30.20;18.93;;;-0.50;99.90;;;;;;5092628;28;20569;-70
2022/12/10 07:11:15;;;;;;;29.37;18.40;;;-0.40;99.90;;;;;;5092629;28;20581;-67
2022/12/10 07:13:43;;;;;;;30.67;18.67;;;-0.40;99.90;;;;;;5092367;28;20548;-69
2022/12/10 07:16:16;;;;;;;33.47;19.70;;;-0.30;99.90;;;;;;5092233;28;20238;-67
2022/12/10 07:18:45;;;;;;;31.07;20.20;;;-0.30;99.90;;;;;;5092226;28;20204;-68
2022/12/10 07:21:21;;;;;;;34.97;20.53;;;-0.30;99.90;;;;;;5092050;28;20661;-69
2022/12/10 07:23:50;;;;;;;44.10;23.20;;;-0.30;99.90;;;;;;5092104;28;20220;-66
2022/12/10 07:26:20;;;;;;;41.57;24.60;;;-0.30;99.90;;;;;;5091929;28;20200;-67
2022/12/10 07:28:48;;;;;;;40.10;23.10;;;-0.30;99.90;;;;;;5091795;28;20189;-68
2022/12/10 07:31:22;;;;;;;41.80;22.47;;;-0.20;99.90;;;;;;5091873;28;20211;-68
2022/12/10 07:33:52;;;;;;;40.00;22.03;;;-0.10;99.90;;;;;;5091758;28;20231;-75
2022/12/10 07:36:22;;;;;;;41.33;24.30;;;-0.10;99.90;;;;;;5091826;28;20199;-67
2022/12/10 07:38:51;;;;;;;43.17;23.40;;;-0.20;99.90;;;;;;5091871;28;20250;-69
2022/12/10 07:41:22;;;;;;;40.27;23.80;;;-0.20;99.90;;;;;;5091825;28;20212;-68
2022/12/10 07:43:51;;;;;;;39.57;22.67;;;0.00;99.90;;;;;;5091908;28;20240;-68
2022/12/10 07:46:21;;;;;;;40.90;24.43;;;0.00;99.90;;;;;;5091738;28;20665;-69
2022/12/10 07:48:50;;;;;;;38.57;22.53;;;0.00;99.90;;;;;;5091781;28;20662;-69
2022/12/10 07:51:22;;;;;;;40.17;23.73;;;0.00;99.90;;;;;;5091644;28;20204;-69
2022/12/10 07:53:53;;;;;;;36.17;23.00;;;-0.10;99.90;;;;;;5091518;28;20239;-69
2022/12/10 07:56:24;;;;;;;42.20;24.20;;;0.00;99.90;;;;;;5091704;28;20196;-73
2022/12/10 07:58:53;;;;;;;41.77;24.13;;;-0.10;99.90;;;;;;5091520;28;20294;-69
2022/12/10 08:01:24;;;;;;;42.13;25.07;;;-0.10;99.90;;;;;;5091615;28;20199;-69
2022/12/10 08:03:53;;;;;;;40.27;24.50;;;0.00;99.90;;;;;;5077704;28;20270;-68
2022/12/10 08:06:22;;;;;;;40.77;25.53;;;0.00;99.90;;;;;;5111995;28;20205;-76
2022/12/10 08:08:51;;;;;;;41.43;25.73;;;0.00;99.90;;;;;;5112017;28;20209;-73
2022/12/10 08:11:23;;;;;;;41.00;25.83;;;-0.10;99.90;;;;;;5111908;28;20734;-77
2022/12/10 08:13:51;;;;;;;43.37;25.57;;;-0.10;99.90;;;;;;5093434;28;20600;-71
2022/12/10 08:16:26;;;;;;;40.40;25.13;;;-0.10;99.90;;;;;;5111899;28;20219;-79
2022/12/10 08:18:56;;;;;;;43.33;26.37;;;0.00;99.90;;;;;;5111750;28;20245;-68
2022/12/10 08:21:26;;;;;;;42.10;24.93;;;0.00;99.90;;;;;;5112124;28;20211;-73
2022/12/10 08:23:55;;;;;;;42.97;26.20;;;0.00;99.90;;;;;;5111730;28;20187;-69
2022/12/10 08:26:27;;;;;;;43.33;25.97;;;0.10;99.90;;;;;;5111954;28;20608;-68
2022/12/10 08:28:56;;;;;;;47.37;26.67;;;0.30;99.90;;;;;;5111705;28;20730;-69
2022/12/10 08:31:26;;;;;;;49.90;29.53;;;0.30;99.90;;;;;;5111678;28;20191;-67
2022/12/10 08:33:57;;;;;;;46.20;27.13;;;0.30;99.90;;;;;;5111667;28;20192;-67
2022/12/10 08:36:25;;;;;;;46.63;26.80;;;0.20;99.90;;;;;;5111717;28;20274;-67
2022/12/10 08:38:54;;;;;;;40.37;25.03;;;0.10;99.90;;;;;;5111720;28;20195;-69
2022/12/10 08:41:24;;;;;;;68.33;36.73;;;0.20;99.90;;;;;;5111559;28;20563;-67
2022/12/10 08:43:54;;;;;;;44.70;27.10;;;0.30;99.90;;;;;;5111265;28;20195;-66
2022/12/10 08:46:24;;;;;;;68.40;35.60;;;0.40;99.90;;;;;;5114486;28;20610;-67
2022/12/10 08:48:53;;;;;;;37.07;24.47;;;0.60;99.90;;;;;;5115694;28;20634;-68
2022/12/10 08:51:22;;;;;;;35.10;22.40;;;0.70;99.90;;;;;;5115588;28;20192;-67
2022/12/10 08:53:51;;;;;;;32.47;21.30;;;0.70;99.90;;;;;;5115341;28;20279;-69
2022/12/10 08:56:19;;;;;;;36.93;23.23;;;0.70;99.90;;;;;;5115418;28;20199;-68
2022/12/10 08:58:49;;;;;;;36.57;23.60;;;0.70;99.90;;;;;;5115280;28;20218;-71
2022/12/10 09:01:19;;;;;;;35.63;23.80;;;0.50;99.90;;;;;;5115170;28;20188;-67
2022/12/10 09:03:48;;;;;;;47.70;29.13;;;0.50;99.90;;;;;;5114723;28;20231;-67
2022/12/10 09:06:19;;;;;;;47.63;27.40;;;0.50;99.90;;;;;;5115201;28;20231;-68
2022/12/10 09:08:47;;;;;;;38.23;22.23;;;0.60;99.90;;;;;;5114989;28;20378;-69
2022/12/10 09:11:18;;;;;;;36.33;22.30;;;0.60;99.90;;;;;;5114923;28;20237;-69
2022/12/10 09:13:46;;;;;;;34.10;23.57;;;0.60;99.90;;;;;;5114434;28;20202;-69
2022/12/10 09:16:16;;;;;;;37.90;23.67;;;0.50;99.90;;;;;;5114947;28;20270;-68
2022/12/10 09:18:45;;;;;;;39.87;22.20;;;0.60;99.90;;;;;;5114955;28;20260;-70
2022/12/10 09:21:17;;;;;;;41.57;25.90;;;0.60;99.90;;;;;;5115018;28;20279;-68
2022/12/10 09:23:45;;;;;;;39.73;24.67;;;0.60;99.90;;;;;;5114454;28;20249;-67
2022/12/10 09:26:16;;;;;;;43.33;24.87;;;0.50;99.90;;;;;;5114561;28;20223;-67
2022/12/10 09:28:45;;;;;;;48.80;27.80;;;0.50;99.90;;;;;;5114406;28;20730;-67
2022/12/10 09:31:17;;;;;;;75.20;40.27;;;0.50;99.90;;;;;;5114701;28;20219;-70
2022/12/10 09:33:49;;;;;;;50.47;30.43;;;0.50;99.90;;;;;;5114553;28;20192;-67
2022/12/10 09:36:18;;;;;;;45.47;27.63;;;0.60;99.90;;;;;;5114500;28;20676;-72
2022/12/10 09:38:48;;;;;;;42.57;27.37;;;0.60;99.90;;;;;;5114455;28;20215;-68
2022/12/10 09:41:44;;;;;;;44.60;25.83;;;0.60;99.90;;;;;;5114404;28;20646;-68
2022/12/10 09:44:18;;;;;;;38.93;23.47;;;0.50;99.90;;;;;;5114336;28;20249;-67
2022/12/10 09:46:52;;;;;;;44.97;25.83;;;0.50;99.90;;;;;;5114321;28;20234;-68
2022/12/10 09:49:31;;;;;;;41.10;24.83;;;0.60;99.90;;;;;;5114143;28;20206;-79
2022/12/10 09:52:05;;;;;;;47.13;26.17;;;0.70;99.90;;;;;;5114372;28;20192;-76
2022/12/10 09:54:38;;;;;;;42.33;25.17;;;0.70;99.90;;;;;;5114264;28;20281;-79
2022/12/10 09:57:11;;;;;;;46.37;27.83;;;0.60;99.90;;;;;;5112873;28;20325;-79
2022/12/10 09:59:44;;;;;;;45.60;27.20;;;0.70;99.90;;;;;;5114059;28;20192;-80
2022/12/10 10:02:23;;;;;;;50.93;28.10;;;0.60;99.90;;;;;;5114610;28;20930;-72
2022/12/10 10:04:55;;;;;;;42.30;24.77;;;0.60;99.90;;;;;;5113646;28;20228;-67
2022/12/10 10:07:26;;;;;;;44.97;27.00;;;0.70;99.90;;;;;;5113993;28;20188;-68
2022/12/10 10:09:58;;;;;;;41.43;25.33;;;0.60;99.90;;;;;;5113878;28;20256;-67
2022/12/10 10:12:29;;;;;;;38.80;22.57;;;0.60;99.90;;;;;;5113795;28;20211;-68
2022/12/10 10:14:58;;;;;;;36.00;22.20;;;0.60;99.90;;;;;;5113432;28;20204;-67
2022/12/10 10:17:35;;;;;;;73.80;38.00;;;0.60;99.90;;;;;;5113691;28;20195;-67
2022/12/10 10:20:04;;;;;;;54.03;29.50;;;0.70;99.90;;;;;;5113784;28;20712;-80
2022/12/10 10:22:33;;;;;;;50.37;31.37;;;0.90;99.90;;;;;;5113706;28;20275;-68
2022/12/10 10:25:02;;;;;;;37.87;24.30;;;1.10;99.90;;;;;;5113494;28;20209;-80
2022/12/10 10:27:33;;;;;;;43.87;26.37;;;1.10;99.90;;;;;;5113751;28;20207;-73
2022/12/10 10:30:04;;;;;;;50.83;27.80;;;1.10;99.90;;;;;;5113276;28;20202;-79
2022/12/10 10:32:51;;;;;;;48.23;27.37;;;1.00;99.90;;;;;;5113521;28;20192;-79
2022/12/10 10:35:26;;;;;;;48.63;28.67;;;1.10;99.90;;;;;;5113283;28;20223;-68
2022/12/10 10:38:02;;;;;;;44.53;26.10;;;1.10;99.90;;;;;;5113342;28;20202;-74
2022/12/10 10:40:34;;;;;;;47.07;26.20;;;1.10;99.90;;;;;;5113419;28;20547;-75
2022/12/10 10:43:03;;;;;;;40.53;25.40;;;1.00;99.90;;;;;;5113239;28;20187;-71
2022/12/10 10:45:40;;;;;;;42.37;25.37;;;1.00;99.90;;;;;;5112868;28;20216;-66
2022/12/10 10:48:14;;;;;;;39.77;24.60;;;0.90;99.90;;;;;;5113087;28;20199;-76
2022/12/10 10:50:45;;;;;;;38.70;23.70;;;0.90;99.90;;;;;;5113209;28;20188;-67
2022/12/10 10:53:32;;;;;;;41.10;25.37;;;0.90;99.90;;;;;;5113183;28;20187;-68
2022/12/10 10:56:08;;;;;;;39.27;24.63;;;0.90;99.90;;;;;;5112839;28;20564;-69
2022/12/10 10:58:37;;;;;;;35.30;22.40;;;0.80;99.90;;;;;;5112861;28;20207;-68
2022/12/10 11:01:08;;;;;;;42.30;22.93;;;0.80;99.90;;;;;;5112776;28;20208;-67
2022/12/10 11:03:47;;;;;;;35.57;23.57;;;0.80;99.90;;;;;;5112819;28;20203;-66
2022/12/10 11:06:16;;;;;;;39.07;24.70;;;0.80;99.90;;;;;;5112597;28;20226;-66
2022/12/10 11:08:48;;;;;;;43.93;24.03;;;0.90;99.90;;;;;;5112487;28;20188;-66
2022/12/10 11:11:21;;;;;;;41.03;24.83;;;0.90;99.90;;;;;;5112650;28;20188;-66
2022/12/10 11:13:50;;;;;;;41.30;25.03;;;0.90;99.90;;;;;;5112313;28;20237;-70
2022/12/10 11:16:21;;;;;;;40.40;24.03;;;0.90;99.90;;;;;;5112767;28;20211;-67
2022/12/10 11:18:57;;;;;;;35.77;22.23;;;0.90;99.90;;;;;;5112412;28;20615;-67
2022/12/10 11:21:26;;;;;;;47.40;27.30;;;0.90;99.90;;;;;;5094216;28;20199;-69
2022/12/10 11:23:56;;;;;;;44.37;27.83;;;1.00;99.90;;;;;;5112378;28;20199;-67
2022/12/10 11:26:41;;;;;;;43.83;26.57;;;1.00;99.90;;;;;;5112284;28;20241;-67
2022/12/10 11:29:28;;;;;;;48.13;26.83;;;1.00;99.90;;;;;;5112384;28;20269;-66
2022/12/10 11:32:12;;;;;;;40.33;24.37;;;1.00;99.90;;;;;;5112478;28;20195;-67
2022/12/10 11:34:56;;;;;;;40.30;23.93;;;1.00;99.90;;;;;;5112451;28;20249;-68
2022/12/10 11:37:32;;;;;;;38.47;22.30;;;1.00;99.90;;;;;;5112518;28;20187;-67
2022/12/10 11:40:16;;;;;;;38.93;23.33;;;1.10;99.90;;;;;;5112404;28;20592;-67
2022/12/10 11:42:55;;;;;;;38.80;23.63;;;1.00;99.90;;;;;;5112384;28;20205;-67
2022/12/10 11:45:30;;;;;;;39.03;23.43;;;1.00;99.90;;;;;;5112106;28;20690;-67
2022/12/10 11:48:10;;;;;;;40.97;23.90;;;1.00;99.90;;;;;;5112306;28;20199;-67
2022/12/10 11:50:46;;;;;;;37.20;22.37;;;1.00;99.90;;;;;;5112072;28;20199;-67
2022/12/10 11:53:37;;;;;;;36.50;22.00;;;1.00;99.90;;;;;;5112191;28;20199;-67
2022/12/10 11:56:14;;;;;;;43.43;24.37;;;1.10;99.90;;;;;;5112095;28;20204;-76
2022/12/10 11:58:56;;;;;;;38.70;23.67;;;1.10;99.90;;;;;;5112113;28;20227;-70
2022/12/10 12:01:35;;;;;;;36.27;23.13;;;1.10;99.90;;;;;;5110850;28;20211;-67
2022/12/10 12:04:29;;;;;;;34.53;22.40;;;1.20;99.90;;;;;;5093563;28;20617;-67
2022/12/10 12:07:27;;;;;;;37.97;24.47;;;1.20;99.90;;;;;;5093713;28;20704;-67
2022/12/10 12:10:16;;;;;;;37.03;22.97;;;1.30;99.90;;;;;;5111941;28;20673;-67
2022/12/10 12:12:54;;;;;;;42.40;26.63;;;1.20;99.90;;;;;;5112013;28;20192;-67
2022/12/10 12:15:29;;;;;;;35.43;23.77;;;1.30;99.90;;;;;;5111827;28;20199;-77
2022/12/10 12:18:02;;;;;;;39.73;22.60;;;1.20;99.90;;;;;;5111950;28;20207;-67
2022/12/10 12:20:33;;;;;;;41.13;24.53;;;1.20;99.90;;;;;;5113469;28;20236;-67
2022/12/10 12:23:07;;;;;;;37.77;24.00;;;1.20;99.90;;;;;;5116042;28;20196;-68
2022/12/10 12:25:39;;;;;;;40.47;23.17;;;1.20;99.90;;;;;;5116051;28;20187;-71
2022/12/10 12:28:14;;;;;;;36.43;22.23;;;1.20;99.90;;;;;;5115746;28;20216;-70
2022/12/10 12:30:47;;;;;;;35.43;22.37;;;1.20;99.90;;;;;;5115801;28;20199;-68
2022/12/10 12:33:28;;;;;;;35.57;22.87;;;1.20;99.90;;;;;;5115754;28;20253;-68
2022/12/10 12:36:00;;;;;;;39.07;24.23;;;1.20;99.90;;;;;;5097480;28;20231;-68
2022/12/10 12:38:33;;;;;;;37.23;24.30;;;1.20;99.90;;;;;;5115644;28;20734;-67
2022/12/10 12:41:06;;;;;;;35.40;23.20;;;1.20;99.90;;;;;;5115772;28;20200;-67
2022/12/10 12:43:45;;;;;;;39.97;24.10;;;1.20;99.90;;;;;;5115589;28;20260;-67
2022/12/10 12:46:19;;;;;;;33.63;22.07;;;1.20;99.90;;;;;;5115658;28;20215;-67
2022/12/10 12:48:55;;;;;;;31.23;20.60;;;1.20;99.90;;;;;;5115670;28;20205;-67
2022/12/10 12:51:31;;;;;;;35.13;20.97;;;1.20;99.90;;;;;;5115505;28;20195;-72
2022/12/10 12:54:01;;;;;;;33.63;21.87;;;1.20;99.90;;;;;;5115356;28;20203;-72
2022/12/10 12:56:49;;;;;;;36.63;22.27;;;1.20;99.90;;;;;;5115269;28;20204;-67
2022/12/10 12:59:32;;;;;;;33.00;21.03;;;1.20;99.90;;;;;;5115141;28;20199;-67
2022/12/10 13:02:18;;;;;;;37.10;23.33;;;1.20;99.90;;;;;;5096842;28;20200;-67
2022/12/10 13:04:48;;;;;;;37.33;22.90;;;1.20;99.70;;;;;;5114984;28;20680;-68